Terminal Aerodrome Forecast
Issued by NWS

Home | Current Version | Previous Version | Text Only | Print | Product List | Glossary Off
Versions: 1 2 3 4 5 6 7 8 9 10 11 12 13 14 15 16 17 18 19 20 21 22 23 24 25 26 27 28

682
FTUS43 KABR 220126 AAA
TAFATY
TAF AMD
KATY 220126Z 2201/2224 VRB05KT P6SM OVC006
     FM220400 VRB05KT 1/2SM FG OVC001
     FM221300 31008KT 1SM BR OVC003
     FM221600 30010KT 4SM BR OVC008=

USA.gov is the U.S. government's official web portal to all federal, state and local government web resources and services.